Time;durP1;ratioP1;P1;durP2;ratioP2;P2;SDS_P1;SDS_P2;PMS_P1;PMS_P2;Temp;Humidity;BMP_temperature;BMP_pressure;BME280_temperature;BME280_humidity;BME280_pressure;Samples;Min_cycle;Max_cycle;Signal;HPM_P1;HPM_P2
2021/05/28 00:01:36;;;;;;;;;;;12.80;83.60;;;;;;4304201;33;20069;-74
2021/05/28 00:04:04;;;;;;;;;;;12.80;83.50;;;;;;4291401;33;21431;-74
2021/05/28 00:06:31;;;;;;;;;;;12.70;83.50;;;;;;4291622;33;21067;-74
2021/05/28 00:08:58;;;;;;;;;;;12.70;83.50;;;;;;4291557;33;20033;-74
2021/05/28 00:11:25;;;;;;;;;;;12.70;83.50;;;;;;4304075;33;20458;-74
2021/05/28 00:13:53;;;;;;;;;;;12.70;83.50;;;;;;4303925;33;21132;-74
2021/05/28 00:16:24;;;;;;;;;;;12.70;83.50;;;;;;4305028;33;20042;-74
2021/05/28 00:18:52;;;;;;;;;;;12.70;83.40;;;;;;4304353;33;23405;-74
2021/05/28 00:21:22;;;;;;;;;;;12.70;83.40;;;;;;4290379;33;29811;-74
2021/05/28 00:23:51;;;;;;;;;;;12.60;83.40;;;;;;4304105;33;24236;-74
2021/05/28 00:26:18;;;;;;;;;;;12.60;83.60;;;;;;4290917;33;20229;-73
2021/05/28 00:28:49;;;;;;;;;;;12.60;83.70;;;;;;4290738;33;22861;-74
2021/05/28 00:31:16;;;;;;;;;;;12.50;83.70;;;;;;4290955;33;22485;-74
2021/05/28 00:33:43;;;;;;;;;;;12.60;83.70;;;;;;4303630;33;22042;-74
2021/05/28 00:36:11;;;;;;;;;;;12.50;83.70;;;;;;4304210;33;20024;-74
2021/05/28 00:38:38;;;;;;;;;;;12.50;83.70;;;;;;4290963;33;20002;-74
2021/05/28 00:41:05;;;;;;;;;;;12.50;83.70;;;;;;4304322;33;22563;-74
2021/05/28 00:43:32;;;;;;;;;;;12.50;83.70;;;;;;4304188;33;20006;-74
2021/05/28 00:46:00;;;;;;;;;;;12.50;83.60;;;;;;4304155;33;20002;-74
2021/05/28 00:48:29;;;;;;;;;;;12.50;83.60;;;;;;4291367;33;20014;-74
2021/05/28 00:50:57;;;;;;;;;;;12.50;83.60;;;;;;4303955;33;20017;-73
2021/05/28 00:53:24;;;;;;;;;;;12.50;83.60;;;;;;4303830;33;28311;-73
2021/05/28 00:55:51;;;;;;;;;;;12.50;83.60;;;;;;4303699;33;26201;-73
2021/05/28 00:58:18;;;;;;;;;;;12.50;83.70;;;;;;4303863;33;20017;-73
2021/05/28 01:00:47;;;;;;;;;;;12.40;83.60;;;;;;4304260;33;20024;-74
2021/05/28 01:03:15;;;;;;;;;;;12.40;83.50;;;;;;4277959;33;31174;-74
2021/05/28 01:05:42;;;;;;;;;;;12.40;83.50;;;;;;4290189;33;20384;-74
2021/05/28 01:08:09;;;;;;;;;;;12.40;83.50;;;;;;4303277;33;23402;-73
2021/05/28 01:10:36;;;;;;;;;;;12.40;83.60;;;;;;4303685;33;24710;-74
2021/05/28 01:13:09;;;;;;;;;;;12.40;83.70;;;;;;4303942;33;20006;-74
2021/05/28 01:15:39;;;;;;;;;;;12.30;83.70;;;;;;4303495;33;24982;-74
2021/05/28 01:18:07;;;;;;;;;;;12.30;83.70;;;;;;4290642;33;20317;-74
2021/05/28 01:20:34;;;;;;;;;;;12.30;83.70;;;;;;4303423;33;25105;-73
2021/05/28 01:23:02;;;;;;;;;;;12.30;83.80;;;;;;4290997;33;20026;-73
2021/05/28 01:25:30;;;;;;;;;;;12.20;83.80;;;;;;4289829;33;26102;-74
2021/05/28 01:27:57;;;;;;;;;;;12.20;84.00;;;;;;4303935;33;20140;-74
2021/05/28 01:30:25;;;;;;;;;;;12.20;84.10;;;;;;4290448;33;20408;-74
2021/05/28 01:32:53;;;;;;;;;;;12.10;84.10;;;;;;4303010;33;20104;-73
2021/05/28 01:35:20;;;;;;;;;;;12.10;84.10;;;;;;4289743;33;20014;-73
2021/05/28 01:37:47;;;;;;;;;;;12.10;84.10;;;;;;4303332;33;20475;-73
2021/05/28 01:40:14;;;;;;;;;;;12.10;84.00;;;;;;4290190;33;24739;-73
2021/05/28 01:42:41;;;;;;;;;;;12.10;84.00;;;;;;4303092;33;20010;-73
2021/05/28 01:45:09;;;;;;;;;;;12.10;83.80;;;;;;4303174;33;20852;-74
2021/05/28 01:47:36;;;;;;;;;;;12.10;83.80;;;;;;4303311;33;21273;-74
2021/05/28 01:50:04;;;;;;;;;;;12.10;83.70;;;;;;4303288;33;20006;-73
2021/05/28 01:52:31;;;;;;;;;;;12.10;83.70;;;;;;4302927;33;25735;-73
2021/05/28 01:54:58;;;;;;;;;;;12.10;83.70;;;;;;4303454;33;20058;-74
2021/05/28 01:57:25;;;;;;;;;;;12.10;83.80;;;;;;4302646;33;20025;-73
2021/05/28 01:59:52;;;;;;;;;;;12.00;83.50;;;;;;4301922;33;20022;-74
2021/05/28 02:02:19;;;;;;;;;;;12.00;83.40;;;;;;4289681;33;20025;-74
2021/05/28 02:04:46;;;;;;;;;;;12.00;83.40;;;;;;4289902;33;20092;-74
2021/05/28 02:07:13;;;;;;;;;;;12.00;83.20;;;;;;4289264;33;25841;-74
2021/05/28 02:09:40;;;;;;;;;;;12.00;83.30;;;;;;4302770;33;21854;-74
2021/05/28 02:12:07;;;;;;;;;;;12.00;83.30;;;;;;4289623;33;20018;-74
2021/05/28 02:14:37;;;;;;;;;;;12.00;83.20;;;;;;4302594;33;20380;-74
2021/05/28 02:17:04;;;;;;;;;;;11.90;83.10;;;;;;4302829;33;20544;-74
2021/05/28 02:19:31;;;;;;;;;;;11.90;83.30;;;;;;4302181;33;28880;-74
2021/05/28 02:22:00;;;;;;;;;;;12.00;83.40;;;;;;4288895;33;28003;-73
2021/05/28 02:24:27;;;;;;;;;;;11.90;83.30;;;;;;4302741;33;26967;-73
2021/05/28 02:26:55;;;;;;;;;;;11.90;83.30;;;;;;4302520;33;21964;-74
2021/05/28 02:29:23;;;;;;;;;;;11.90;83.30;;;;;;4302782;33;21235;-74
2021/05/28 02:31:50;;;;;;;;;;;11.90;83.30;;;;;;4302656;33;22291;-74
2021/05/28 02:34:17;;;;;;;;;;;11.90;83.20;;;;;;4302471;33;20006;-73
2021/05/28 02:36:44;;;;;;;;;;;11.90;83.30;;;;;;4302545;33;20827;-74
2021/05/28 02:39:11;;;;;;;;;;;11.80;83.30;;;;;;4302383;33;20050;-74
2021/05/28 02:41:39;;;;;;;;;;;11.80;83.20;;;;;;4277873;33;20399;-74
2021/05/28 02:44:06;;;;;;;;;;;11.80;83.20;;;;;;4302395;33;24148;-74
2021/05/28 02:46:36;;;;;;;;;;;11.80;83.20;;;;;;4289539;33;20014;-73
2021/05/28 02:49:03;;;;;;;;;;;11.80;83.10;;;;;;4302545;33;20018;-74
2021/05/28 02:51:30;;;;;;;;;;;11.80;83.10;;;;;;4289818;33;20396;-73
2021/05/28 02:53:57;;;;;;;;;;;11.70;83.10;;;;;;4302056;33;20021;-73
2021/05/28 02:56:24;;;;;;;;;;;11.70;82.90;;;;;;4302318;33;20006;-74
2021/05/28 02:58:51;;;;;;;;;;;11.70;83.00;;;;;;4302099;33;20010;-74
2021/05/28 03:01:18;;;;;;;;;;;11.70;83.00;;;;;;4301896;33;20120;-73
2021/05/28 03:03:45;;;;;;;;;;;11.70;82.80;;;;;;4301546;33;24402;-73
2021/05/28 03:06:12;;;;;;;;;;;11.70;82.70;;;;;;4289541;33;20022;-73
2021/05/28 03:08:40;;;;;;;;;;;11.70;82.90;;;;;;4289098;33;24606;-73
2021/05/28 03:11:07;;;;;;;;;;;11.70;82.80;;;;;;4304805;33;20002;-74
2021/05/28 03:13:34;;;;;;;;;;;11.60;82.90;;;;;;4306884;33;20006;-73
2021/05/28 03:16:01;;;;;;;;;;;11.60;82.90;;;;;;4306671;33;22774;-73
2021/05/28 03:18:44;;;;;;;;;;;11.60;82.90;;;;;;4293883;33;19998;-73
2021/05/28 03:21:23;;;;;;;;;;;11.60;82.70;;;;;;4294124;33;20086;-73
2021/05/28 03:23:51;;;;;;;;;;;11.60;82.80;;;;;;4293638;33;43913;-74
2021/05/28 03:26:19;;;;;;;;;;;11.60;82.70;;;;;;4306027;33;41458;-74
2021/05/28 03:28:46;;;;;;;;;;;11.50;82.70;;;;;;4292650;33;44255;-74
2021/05/28 03:31:13;;;;;;;;;;;11.50;82.80;;;;;;4292612;33;44636;-73
2021/05/28 03:33:41;;;;;;;;;;;11.50;82.90;;;;;;4305994;33;43615;-74
2021/05/28 03:36:08;;;;;;;;;;;11.50;83.10;;;;;;4307401;33;20341;-74
2021/05/28 03:38:36;;;;;;;;;;;11.50;83.00;;;;;;4292710;33;46934;-73
2021/05/28 03:41:03;;;;;;;;;;;11.50;83.00;;;;;;4306058;33;43216;-73
2021/05/28 03:43:30;;;;;;;;;;;11.50;83.20;;;;;;4306925;33;20428;-73
2021/05/28 03:45:57;;;;;;;;;;;11.50;83.20;;;;;;4293955;33;20057;-74
2021/05/28 03:48:24;;;;;;;;;;;11.40;83.30;;;;;;4306032;33;44045;-74
2021/05/28 03:50:52;;;;;;;;;;;11.40;83.50;;;;;;4292610;33;43238;-74
2021/05/28 03:53:19;;;;;;;;;;;11.40;83.60;;;;;;4305724;33;43660;-74
2021/05/28 03:55:46;;;;;;;;;;;11.40;83.90;;;;;;4292696;33;43409;-73
2021/05/28 03:58:13;;;;;;;;;;;11.40;84.00;;;;;;4292582;33;45875;-73
2021/05/28 04:00:40;;;;;;;;;;;11.40;84.10;;;;;;4292841;33;43467;-73
2021/05/28 04:03:07;;;;;;;;;;;11.40;84.20;;;;;;4292619;33;44225;-74
2021/05/28 04:05:34;;;;;;;;;;;11.40;84.30;;;;;;4306155;33;44112;-73
2021/05/28 04:08:01;;;;;;;;;;;11.40;84.30;;;;;;4305970;33;44752;-73
2021/05/28 04:10:28;;;;;;;;;;;11.40;84.30;;;;;;4293255;33;40193;-74
2021/05/28 04:12:56;;;;;;;;;;;11.40;84.40;;;;;;4305560;33;43271;-73
2021/05/28 04:15:23;;;;;;;;;;;11.40;84.40;;;;;;4292535;33;44610;-73
2021/05/28 04:17:50;;;;;;;;;;;11.40;84.40;;;;;;4305808;33;42526;-74
2021/05/28 04:20:17;;;;;;;;;;;11.40;84.60;;;;;;4306113;33;43378;-74
2021/05/28 04:22:45;;;;;;;;;;;11.40;84.70;;;;;;4303694;33;43575;-74
2021/05/28 04:25:15;;;;;;;;;;;11.40;84.80;;;;;;4303595;33;43698;-74
2021/05/28 04:27:42;;;;;;;;;;;11.40;85.00;;;;;;4303726;33;41782;-73
2021/05/28 04:30:10;;;;;;;;;;;11.30;85.00;;;;;;4303148;33;40045;-74
2021/05/28 04:32:37;;;;;;;;;;;11.30;85.20;;;;;;4289892;33;44014;-74
2021/05/28 04:35:05;;;;;;;;;;;11.30;85.10;;;;;;4290054;33;43653;-74
2021/05/28 04:37:32;;;;;;;;;;;11.30;85.20;;;;;;4290018;33;44420;-74
2021/05/28 04:39:59;;;;;;;;;;;11.30;85.30;;;;;;4304282;33;20093;-73
2021/05/28 04:42:26;;;;;;;;;;;11.20;85.40;;;;;;4290247;33;42640;-73
2021/05/28 04:44:53;;;;;;;;;;;11.20;85.50;;;;;;4303288;33;45009;-74
2021/05/28 04:47:20;;;;;;;;;;;11.20;85.60;;;;;;4290319;33;44070;-73
2021/05/28 04:49:49;;;;;;;;;;;11.30;85.70;;;;;;4302932;33;44667;-73
2021/05/28 04:52:16;;;;;;;;;;;11.20;85.70;;;;;;4302991;33;43266;-73
2021/05/28 04:54:46;;;;;;;;;;;11.30;85.80;;;;;;4290313;33;43199;-74
2021/05/28 04:57:13;;;;;;;;;;;11.30;85.80;;;;;;4289523;33;43491;-73
2021/05/28 04:59:40;;;;;;;;;;;11.30;86.00;;;;;;4303076;33;42244;-74
2021/05/28 05:02:08;;;;;;;;;;;11.30;86.10;;;;;;4303191;33;22943;-74
2021/05/28 05:04:35;;;;;;;;;;;11.30;86.20;;;;;;4303049;33;44640;-74
2021/05/28 05:07:02;;;;;;;;;;;11.30;86.30;;;;;;4303009;33;42987;-74
2021/05/28 05:09:29;;;;;;;;;;;11.30;86.50;;;;;;4302901;33;43653;-74
2021/05/28 05:11:58;;;;;;;;;;;11.30;86.70;;;;;;4289364;33;43481;-73
2021/05/28 05:14:26;;;;;;;;;;;11.30;86.70;;;;;;4285010;33;43649;-74
2021/05/28 05:16:53;;;;;;;;;;;11.30;86.80;;;;;;4275185;33;44494;-74
2021/05/28 05:19:20;;;;;;;;;;;11.30;86.90;;;;;;4288365;33;43413;-73
2021/05/28 05:21:47;;;;;;;;;;;11.30;87.10;;;;;;4288231;33;42911;-73
2021/05/28 05:24:14;;;;;;;;;;;11.30;87.30;;;;;;4263249;33;43773;-73
2021/05/28 05:26:41;;;;;;;;;;;11.30;87.50;;;;;;4288283;33;44072;-74
2021/05/28 05:29:09;;;;;;;;;;;11.30;87.60;;;;;;4288064;33;43438;-73
2021/05/28 05:31:39;;;;;;;;;;;11.30;87.70;;;;;;4274725;33;44192;-73
2021/05/28 05:34:07;;;;;;;;;;;11.30;87.90;;;;;;4287844;33;43410;-74
2021/05/28 05:36:35;;;;;;;;;;;11.30;88.00;;;;;;4288205;33;44625;-73
2021/05/28 05:39:06;;;;;;;;;;;11.30;88.20;;;;;;4275242;33;44367;-74
2021/05/28 05:41:33;;;;;;;;;;;11.30;88.20;;;;;;4286750;33;41580;-74
2021/05/28 05:44:00;;;;;;;;;;;11.30;88.40;;;;;;4287589;33;42479;-74
2021/05/28 05:46:27;;;;;;;;;;;11.30;88.50;;;;;;4288355;33;21591;-74
2021/05/28 05:48:54;;;;;;;;;;;11.30;88.70;;;;;;4288520;33;20025;-73
2021/05/28 05:51:21;;;;;;;;;;;11.40;89.00;;;;;;4289077;33;20010;-74
2021/05/28 05:53:48;;;;;;;;;;;11.40;89.10;;;;;;4288386;33;20252;-74
2021/05/28 05:56:18;;;;;;;;;;;11.40;89.10;;;;;;4288407;33;20002;-73
2021/05/28 05:58:45;;;;;;;;;;;11.40;89.20;;;;;;4275165;33;22335;-74
2021/05/28 06:01:13;;;;;;;;;;;11.40;89.20;;;;;;4288359;33;20002;-74
2021/05/28 06:03:40;;;;;;;;;;;11.40;89.40;;;;;;4274749;33;20382;-74
2021/05/28 06:06:07;;;;;;;;;;;11.40;89.50;;;;;;4288279;33;23505;-73
2021/05/28 06:08:34;;;;;;;;;;;11.40;89.60;;;;;;4288668;33;20014;-74
2021/05/28 06:11:01;;;;;;;;;;;11.40;89.60;;;;;;4288083;33;20054;-74
2021/05/28 06:13:28;;;;;;;;;;;11.40;89.80;;;;;;4274745;33;30151;-73
2021/05/28 06:15:56;;;;;;;;;;;11.50;89.80;;;;;;4288436;33;20021;-73
2021/05/28 06:18:23;;;;;;;;;;;11.40;89.80;;;;;;4287911;33;20002;-74
2021/05/28 06:20:53;;;;;;;;;;;11.50;90.00;;;;;;4287684;33;23794;-74
2021/05/28 06:23:20;;;;;;;;;;;11.50;90.00;;;;;;4287823;33;30311;-74
2021/05/28 06:25:47;;;;;;;;;;;11.50;90.10;;;;;;4287861;33;20014;-74
2021/05/28 06:28:16;;;;;;;;;;;11.50;90.10;;;;;;4287477;33;30744;-73
2021/05/28 06:30:43;;;;;;;;;;;11.50;90.10;;;;;;4275318;33;21797;-73
2021/05/28 06:33:11;;;;;;;;;;;11.50;90.20;;;;;;4288316;33;20077;-73
2021/05/28 06:35:39;;;;;;;;;;;11.50;90.10;;;;;;4287588;33;23337;-75
2021/05/28 06:38:09;;;;;;;;;;;11.50;90.10;;;;;;4288468;33;20022;-74
2021/05/28 06:40:37;;;;;;;;;;;11.50;90.10;;;;;;4287884;33;20030;-73
2021/05/28 06:43:05;;;;;;;;;;;11.50;90.20;;;;;;4288209;33;22588;-73
2021/05/28 06:45:38;;;;;;;;;;;11.60;90.20;;;;;;4275368;33;20011;-73
2021/05/28 06:48:08;;;;;;;;;;;11.60;90.20;;;;;;4287580;33;24304;-74
2021/05/28 06:50:37;;;;;;;;;;;11.60;90.30;;;;;;4287795;33;26747;-74
2021/05/28 06:53:04;;;;;;;;;;;11.60;90.30;;;;;;4274341;33;29474;-73
2021/05/28 06:55:31;;;;;;;;;;;11.60;90.30;;;;;;4274606;33;23862;-74
2021/05/28 06:57:59;;;;;;;;;;;11.60;90.30;;;;;;4287615;33;20015;-73
2021/05/28 07:00:26;;;;;;;;;;;11.60;90.40;;;;;;4287278;33;22210;-74
2021/05/28 07:02:55;;;;;;;;;;;11.70;90.40;;;;;;4288099;33;20020;-74
2021/05/28 07:05:24;;;;;;;;;;;11.70;90.40;;;;;;4268834;33;27906;-73
2021/05/28 07:07:53;;;;;;;;;;;11.70;90.40;;;;;;4287642;33;20065;-74
2021/05/28 07:10:21;;;;;;;;;;;11.70;90.40;;;;;;4287951;33;20070;-74
2021/05/28 07:12:48;;;;;;;;;;;11.60;90.40;;;;;;4287470;33;20013;-74
2021/05/28 07:15:15;;;;;;;;;;;11.70;90.40;;;;;;4287957;33;20014;-73
2021/05/28 07:17:45;;;;;;;;;;;11.70;90.50;;;;;;4287778;33;20438;-74
2021/05/28 07:20:13;;;;;;;;;;;11.70;90.50;;;;;;4287108;33;21348;-74
2021/05/28 07:22:40;;;;;;;;;;;11.70;90.50;;;;;;4287467;33;20635;-74
2021/05/28 07:25:09;;;;;;;;;;;11.70;90.50;;;;;;4288121;33;20021;-74
2021/05/28 07:27:36;;;;;;;;;;;11.70;90.50;;;;;;4287809;33;20040;-73
2021/05/28 07:30:05;;;;;;;;;;;11.80;90.50;;;;;;4287789;33;20006;-74
2021/05/28 07:32:32;;;;;;;;;;;11.80;90.50;;;;;;4274612;33;20014;-74
2021/05/28 07:34:59;;;;;;;;;;;11.70;90.50;;;;;;4287500;33;24685;-73
2021/05/28 07:37:26;;;;;;;;;;;11.80;90.50;;;;;;4274436;33;20417;-73
2021/05/28 07:39:53;;;;;;;;;;;11.80;90.40;;;;;;4287404;33;20050;-74
2021/05/28 07:42:22;;;;;;;;;;;11.80;90.60;;;;;;4302339;33;20002;-73
2021/05/28 07:44:51;;;;;;;;;;;11.80;90.50;;;;;;4288627;33;27799;-74
2021/05/28 07:47:18;;;;;;;;;;;11.80;90.60;;;;;;4301426;33;25883;-73
2021/05/28 07:49:47;;;;;;;;;;;11.80;90.60;;;;;;4301941;33;20020;-74
2021/05/28 07:52:15;;;;;;;;;;;11.90;90.60;;;;;;4302349;33;20412;-74
2021/05/28 07:54:42;;;;;;;;;;;11.90;90.60;;;;;;4302278;33;20018;-74
2021/05/28 07:57:09;;;;;;;;;;;11.90;90.60;;;;;;4289349;33;20016;-73
2021/05/28 07:59:36;;;;;;;;;;;11.90;90.60;;;;;;4303829;33;30040;-74
2021/05/28 08:02:03;;;;;;;;;;;11.90;90.60;;;;;;4304720;33;20006;-74
2021/05/28 08:04:33;;;;;;;;;;;11.90;90.60;;;;;;4290992;33;20044;-73
2021/05/28 08:07:00;;;;;;;;;;;11.90;90.60;;;;;;4304200;33;26090;-74
2021/05/28 08:09:27;;;;;;;;;;;11.90;90.60;;;;;;4305105;33;20041;-74
2021/05/28 08:11:54;;;;;;;;;;;11.90;90.60;;;;;;4304697;33;20429;-74
2021/05/28 08:14:21;;;;;;;;;;;12.00;90.70;;;;;;4290988;33;20718;-74
2021/05/28 08:16:48;;;;;;;;;;;11.90;90.70;;;;;;4279402;33;20014;-73
2021/05/28 08:19:15;;;;;;;;;;;12.00;90.70;;;;;;4304724;33;20037;-73
2021/05/28 08:21:42;;;;;;;;;;;12.00;90.70;;;;;;4304470;33;20058;-74
2021/05/28 08:24:10;;;;;;;;;;;12.00;90.70;;;;;;4303983;33;20022;-73
2021/05/28 08:26:37;;;;;;;;;;;12.00;90.80;;;;;;4304492;33;20006;-73
2021/05/28 08:29:05;;;;;;;;;;;12.00;90.80;;;;;;4303787;33;20550;-74
2021/05/28 08:31:33;;;;;;;;;;;12.00;90.70;;;;;;4303894;33;26031;-74
2021/05/28 08:34:01;;;;;;;;;;;12.00;90.80;;;;;;4303953;33;20006;-74
2021/05/28 08:36:28;;;;;;;;;;;12.00;90.80;;;;;;4303948;33;23946;-73
2021/05/28 08:38:55;;;;;;;;;;;12.10;90.80;;;;;;4304751;33;20018;-74
2021/05/28 08:41:22;;;;;;;;;;;12.00;90.80;;;;;;4303414;33;23872;-74
2021/05/28 08:43:51;;;;;;;;;;;12.00;90.80;;;;;;4290411;33;23604;-74
2021/05/28 08:46:21;;;;;;;;;;;12.10;90.80;;;;;;4304330;33;20309;-73
2021/05/28 08:48:50;;;;;;;;;;;12.10;90.90;;;;;;4290834;33;20017;-73
2021/05/28 08:51:18;;;;;;;;;;;12.10;90.90;;;;;;4303509;33;20003;-73
2021/05/28 08:53:45;;;;;;;;;;;12.10;90.80;;;;;;4304001;33;20053;-74
2021/05/28 08:56:13;;;;;;;;;;;12.10;90.80;;;;;;4303654;33;20015;-73
2021/05/28 08:58:40;;;;;;;;;;;12.10;90.80;;;;;;4290391;33;25794;-73
2021/05/28 09:01:08;;;;;;;;;;;12.20;90.90;;;;;;4304059;33;20014;-73
2021/05/28 09:03:36;;;;;;;;;;;12.10;90.80;;;;;;4303401;33;20121;-73
2021/05/28 09:06:24;;;;;;;;;;;12.20;90.80;;;;;;4290787;33;22212;-73
2021/05/28 09:08:51;;;;;;;;;;;12.20;90.90;;;;;;4303310;33;25482;-74
2021/05/28 09:11:18;;;;;;;;;;;12.20;90.90;;;;;;4303465;33;26296;-73
2021/05/28 09:13:48;;;;;;;;;;;12.20;90.90;;;;;;4290719;33;20018;-74
2021/05/28 09:16:16;;;;;;;;;;;12.20;90.90;;;;;;4302979;33;22505;-73
2021/05/28 09:18:47;;;;;;;;;;;12.20;90.90;;;;;;4303972;33;20010;-74
2021/05/28 09:21:24;;;;;;;;;;;12.30;90.90;;;;;;4290084;33;20009;-74
2021/05/28 09:23:51;;;;;;;;;;;12.30;90.90;;;;;;4304019;33;19998;-73
2021/05/28 09:26:19;;;;;;;;;;;12.30;90.90;;;;;;4303588;33;21697;-73
2021/05/28 09:28:50;;;;;;;;;;;12.30;90.90;;;;;;4289969;33;20018;-73
2021/05/28 09:31:18;;;;;;;;;;;12.30;90.90;;;;;;4290534;33;20046;-74
2021/05/28 09:33:47;;;;;;;;;;;12.30;90.90;;;;;;4303170;33;20020;-74
2021/05/28 09:36:18;;;;;;;;;;;12.40;90.90;;;;;;4303223;33;29990;-74
2021/05/28 09:39:03;;;;;;;;;;;12.40;91.00;;;;;;4303127;33;20578;-73
2021/05/28 09:41:33;;;;;;;;;;;12.40;90.90;;;;;;4290752;33;20003;-73
2021/05/28 09:44:18;;;;;;;;;;;12.40;90.90;;;;;;4303786;33;20025;-74
2021/05/28 09:47:03;;;;;;;;;;;12.50;91.00;;;;;;4290084;33;27400;-73
2021/05/28 09:49:35;;;;;;;;;;;12.50;91.00;;;;;;4289985;33;19998;-73
2021/05/28 09:52:17;;;;;;;;;;;12.50;91.00;;;;;;4303185;33;22511;-73
2021/05/28 09:54:55;;;;;;;;;;;12.50;90.90;;;;;;4289437;33;23909;-73
2021/05/28 09:57:29;;;;;;;;;;;12.60;91.00;;;;;;4302882;33;27190;-73
2021/05/28 09:59:57;;;;;;;;;;;12.60;90.90;;;;;;4288853;33;35901;-73
2021/05/28 10:02:36;;;;;;;;;;;12.60;90.90;;;;;;4302248;33;38295;-74
2021/05/28 10:05:05;;;;;;;;;;;12.60;90.90;;;;;;4289773;33;20012;-73
2021/05/28 10:07:33;;;;;;;;;;;12.60;90.90;;;;;;4302490;33;35458;-73
2021/05/28 10:10:01;;;;;;;;;;;12.70;90.90;;;;;;4288606;33;43119;-73
2021/05/28 10:12:28;;;;;;;;;;;12.70;90.90;;;;;;4301792;33;44223;-73
2021/05/28 10:14:57;;;;;;;;;;;12.70;90.80;;;;;;4301660;33;43556;-73
2021/05/28 10:17:24;;;;;;;;;;;12.80;90.90;;;;;;4288429;33;42404;-74
2021/05/28 10:19:51;;;;;;;;;;;12.80;90.80;;;;;;4301452;33;43246;-74
2021/05/28 10:22:21;;;;;;;;;;;12.80;90.80;;;;;;4289072;33;43669;-73
2021/05/28 10:24:50;;;;;;;;;;;12.80;90.80;;;;;;4288619;33;44903;-73
2021/05/28 10:27:22;;;;;;;;;;;12.80;90.80;;;;;;4289744;33;20053;-73
2021/05/28 10:29:50;;;;;;;;;;;12.80;90.80;;;;;;4288713;33;43215;-74
2021/05/28 10:32:17;;;;;;;;;;;12.80;90.70;;;;;;4288680;33;43371;-73
2021/05/28 10:35:03;;;;;;;;;;;12.90;90.70;;;;;;4301905;33;44276;-73
2021/05/28 10:37:30;;;;;;;;;;;12.90;90.70;;;;;;4301679;33;42352;-73
2021/05/28 10:39:58;;;;;;;;;;;12.90;90.70;;;;;;4301730;33;44492;-74
2021/05/28 10:42:25;;;;;;;;;;;12.90;90.70;;;;;;4288742;33;43337;-74
2021/05/28 10:44:52;;;;;;;;;;;12.90;90.70;;;;;;4301335;33;43694;-74
2021/05/28 10:47:19;;;;;;;;;;;13.00;90.70;;;;;;4301264;33;42649;-73
2021/05/28 10:49:50;;;;;;;;;;;13.00;90.70;;;;;;4288511;33;42837;-73
2021/05/28 10:52:28;;;;;;;;;;;13.00;91.00;;;;;;4288691;33;43959;-73
2021/05/28 10:54:56;;;;;;;;;;;13.00;90.60;;;;;;4302663;33;20020;-74
2021/05/28 10:57:27;;;;;;;;;;;13.00;90.60;;;;;;4302221;33;25320;-74
2021/05/28 10:59:56;;;;;;;;;;;13.00;90.60;;;;;;4302543;33;21102;-74
2021/05/28 11:02:42;;;;;;;;;;;13.10;90.60;;;;;;4289000;33;24439;-74
2021/05/28 11:05:10;;;;;;;;;;;13.10;90.60;;;;;;4288898;33;22962;-74
2021/05/28 11:07:40;;;;;;;;;;;13.10;90.50;;;;;;4301477;33;29806;-74
2021/05/28 11:10:26;;;;;;;;;;;13.10;90.50;;;;;;4288719;33;31010;-74
2021/05/28 11:12:54;;;;;;;;;;;13.20;90.60;;;;;;4288659;33;43335;-73
2021/05/28 11:15:25;;;;;;;;;;;13.20;90.50;;;;;;4301545;33;43070;-74
2021/05/28 11:17:59;;;;;;;;;;;13.20;90.50;;;;;;4302027;33;25798;-75
2021/05/28 11:20:31;;;;;;;;;;;13.20;90.50;;;;;;4288677;33;22890;-73
2021/05/28 11:23:05;;;;;;;;;;;13.30;90.50;;;;;;4289958;33;20044;-74
2021/05/28 11:25:43;;;;;;;;;;;13.30;90.50;;;;;;4301418;33;42231;-73
2021/05/28 11:28:10;;;;;;;;;;;13.30;90.50;;;;;;4301765;33;43617;-73
2021/05/28 11:30:39;;;;;;;;;;;13.30;90.40;;;;;;4301393;33;43399;-74
2021/05/28 11:33:06;;;;;;;;;;;13.30;90.40;;;;;;4291071;33;43697;-73
2021/05/28 11:35:42;;;;;;;;;;;13.40;90.40;;;;;;4304164;33;43277;-73
2021/05/28 11:38:11;;;;;;;;;;;13.40;90.40;;;;;;4304334;33;44174;-73
2021/05/28 11:40:40;;;;;;;;;;;13.50;90.40;;;;;;4290586;33;43950;-73
2021/05/28 11:43:07;;;;;;;;;;;13.50;90.40;;;;;;4290576;33;43882;-74
2021/05/28 11:45:36;;;;;;;;;;;13.50;90.30;;;;;;4305485;33;20379;-73
2021/05/28 11:48:08;;;;;;;;;;;13.50;90.30;;;;;;4291841;33;20013;-73
2021/05/28 11:50:42;;;;;;;;;;;13.50;90.30;;;;;;4305362;33;20014;-73
2021/05/28 11:53:10;;;;;;;;;;;13.60;90.20;;;;;;4304999;33;20014;-73
2021/05/28 11:55:46;;;;;;;;;;;13.60;90.20;;;;;;4304524;33;28954;-74
2021/05/28 11:58:14;;;;;;;;;;;13.60;90.20;;;;;;4304813;33;20028;-73
2021/05/28 12:00:42;;;;;;;;;;;13.60;90.20;;;;;;4305089;33;20014;-73
2021/05/28 12:03:09;;;;;;;;;;;13.60;90.10;;;;;;4290679;33;30713;-73
2021/05/28 12:05:38;;;;;;;;;;;13.70;90.20;;;;;;4303813;33;42350;-73
2021/05/28 12:08:11;;;;;;;;;;;13.70;90.10;;;;;;4279003;33;22390;-74
2021/05/28 12:10:39;;;;;;;;;;;13.70;90.10;;;;;;4292144;33;20032;-73
2021/05/28 12:13:17;;;;;;;;;;;13.70;90.00;;;;;;4304711;33;20014;-73
2021/05/28 12:15:45;;;;;;;;;;;13.70;90.10;;;;;;4304750;33;20085;-73
2021/05/28 12:18:18;;;;;;;;;;;13.80;90.10;;;;;;4304811;33;20349;-73
2021/05/28 12:20:47;;;;;;;;;;;13.80;90.10;;;;;;4291880;33;20413;-73
2021/05/28 12:23:16;;;;;;;;;;;13.90;90.10;;;;;;4278917;33;27423;-73
2021/05/28 12:25:44;;;;;;;;;;;13.90;90.00;;;;;;4304407;33;22952;-73
2021/05/28 12:28:19;;;;;;;;;;;13.90;90.00;;;;;;4278820;33;24402;-73
2021/05/28 12:30:48;;;;;;;;;;;14.00;90.00;;;;;;4291228;33;20002;-73
2021/05/28 12:33:16;;;;;;;;;;;14.00;90.00;;;;;;4290943;33;28367;-74
2021/05/28 12:35:47;;;;;;;;;;;14.00;89.90;;;;;;4304430;33;20022;-73
2021/05/28 12:38:15;;;;;;;;;;;14.00;89.80;;;;;;4278861;33;24476;-73
2021/05/28 12:40:46;;;;;;;;;;;14.10;89.80;;;;;;4303576;33;21315;-72
2021/05/28 12:43:18;;;;;;;;;;;14.10;89.70;;;;;;4290555;33;26914;-73
2021/05/28 12:45:46;;;;;;;;;;;14.10;89.70;;;;;;4291082;33;22509;-74
2021/05/28 12:48:15;;;;;;;;;;;14.10;89.60;;;;;;4292137;33;20442;-73
2021/05/28 12:50:44;;;;;;;;;;;14.20;89.70;;;;;;4304470;33;20058;-73
2021/05/28 12:53:15;;;;;;;;;;;14.20;89.60;;;;;;4278259;33;28237;-73
2021/05/28 12:55:46;;;;;;;;;;;14.20;89.50;;;;;;4304152;33;20018;-73
2021/05/28 12:58:24;;;;;;;;;;;14.30;89.50;;;;;;4291175;33;20054;-74
2021/05/28 13:00:52;;;;;;;;;;;14.30;89.50;;;;;;4303826;33;20022;-73
2021/05/28 13:03:39;;;;;;;;;;;14.30;89.40;;;;;;4303361;33;22113;-73
2021/05/28 13:06:23;;;;;;;;;;;14.30;89.30;;;;;;4289766;33;45128;-73
2021/05/28 13:08:50;;;;;;;;;;;14.40;89.30;;;;;;4290095;33;43467;-73
2021/05/28 13:11:18;;;;;;;;;;;14.40;89.20;;;;;;4302568;33;43034;-73
2021/05/28 13:13:55;;;;;;;;;;;14.40;89.20;;;;;;4289414;33;43559;-73
2021/05/28 13:16:28;;;;;;;;;;;14.50;89.40;;;;;;4303185;33;43292;-73
2021/05/28 13:19:06;;;;;;;;;;;14.50;89.20;;;;;;4303070;33;43370;-73
2021/05/28 13:21:34;;;;;;;;;;;14.60;89.10;;;;;;4290971;33;20067;-73
2021/05/28 13:24:01;;;;;;;;;;;14.60;88.90;;;;;;4302412;33;43688;-73
2021/05/28 13:26:29;;;;;;;;;;;14.60;88.90;;;;;;4302878;33;43676;-73
2021/05/28 13:28:56;;;;;;;;;;;14.60;88.70;;;;;;4289298;33;44362;-73
2021/05/28 13:31:23;;;;;;;;;;;14.70;88.70;;;;;;4302250;33;44038;-73
2021/05/28 13:33:53;;;;;;;;;;;14.70;88.50;;;;;;4302684;33;44707;-74
2021/05/28 13:36:22;;;;;;;;;;;14.70;89.20;;;;;;4302804;33;43275;-73
2021/05/28 13:38:57;;;;;;;;;;;14.70;88.40;;;;;;4302837;33;44324;-73
2021/05/28 13:41:35;;;;;;;;;;;14.70;88.50;;;;;;4302776;33;43285;-73
2021/05/28 13:44:03;;;;;;;;;;;14.80;88.50;;;;;;4289674;33;44975;-73
2021/05/28 13:46:32;;;;;;;;;;;14.80;88.50;;;;;;4289547;33;43368;-74
2021/05/28 13:49:01;;;;;;;;;;;14.80;88.30;;;;;;4302771;33;44266;-73
2021/05/28 13:51:33;;;;;;;;;;;14.90;88.40;;;;;;4303621;33;20010;-73
2021/05/28 13:54:00;;;;;;;;;;;14.90;88.20;;;;;;4289582;33;44275;-73
2021/05/28 13:56:30;;;;;;;;;;;14.90;88.10;;;;;;4289087;33;44516;-73
2021/05/28 13:58:57;;;;;;;;;;;15.00;88.00;;;;;;4301781;33;43669;-74
2021/05/28 14:01:24;;;;;;;;;;;15.00;88.00;;;;;;4289122;33;41994;-73
2021/05/28 14:03:51;;;;;;;;;;;15.00;87.70;;;;;;4301865;33;44289;-73
2021/05/28 14:06:18;;;;;;;;;;;15.00;87.50;;;;;;4302258;33;44298;-73
2021/05/28 14:08:45;;;;;;;;;;;15.10;87.40;;;;;;4302046;33;44716;-73
2021/05/28 14:11:15;;;;;;;;;;;15.10;87.40;;;;;;4301717;33;44134;-73
2021/05/28 14:13:42;;;;;;;;;;;15.10;87.30;;;;;;4302083;33;43349;-74
2021/05/28 14:16:12;;;;;;;;;;;15.10;87.30;;;;;;4302152;33;45046;-73
2021/05/28 14:18:40;;;;;;;;;;;15.10;87.30;;;;;;4302824;33;20007;-73
2021/05/28 14:21:07;;;;;;;;;;;15.20;87.40;;;;;;4302193;33;44348;-73
2021/05/28 14:23:37;;;;;;;;;;;15.20;88.10;;;;;;4288939;33;43582;-73
2021/05/28 14:26:05;;;;;;;;;;;15.30;87.30;;;;;;4288989;33;43354;-74